Time;durP1;ratioP1;P1;durP2;ratioP2;P2;SDS_P1;SDS_P2;PMS_P1;PMS_P2;Temp;Humidity;BMP_temperature;BMP_pressure;BME280_temperature;BME280_humidity;BME280_pressure;Samples;Min_cycle;Max_cycle;Signal;HPM_P1;HPM_P2
2022/09/19 00:02:18;;;;;;;2.35;1.60;;;9.50;99.90;;;8.30;100.00;97371.25;5052576;28;20401;-76
2022/09/19 00:04:44;;;;;;;3.05;1.70;;;9.40;99.90;;;8.23;100.00;97375.06;5051955;28;20419;-76
2022/09/19 00:07:10;;;;;;;3.13;2.53;;;9.30;99.90;;;8.20;100.00;97384.25;5050360;28;20471;-76
2022/09/19 00:09:36;;;;;;;6.00;3.30;;;9.30;99.90;;;8.25;100.00;97383.56;5042875;28;20434;-76
2022/09/19 00:12:04;;;;;;;5.25;2.60;;;9.40;99.90;;;8.22;100.00;97386.66;5052399;28;20883;-77
2022/09/19 00:14:33;;;;;;;3.00;2.00;;;9.30;99.90;;;8.26;100.00;97387.78;5050189;28;20842;-76
2022/09/19 00:17:04;;;;;;;2.83;2.00;;;9.40;99.90;;;8.26;100.00;97383.31;5052368;28;20488;-76
2022/09/19 00:19:30;;;;;;;2.10;1.60;;;9.40;99.90;;;8.26;100.00;97385.97;5052288;28;20397;-77
2022/09/19 00:22:00;;;;;;;2.47;1.70;;;9.40;99.90;;;8.24;100.00;97377.47;5052298;28;20404;-78
2022/09/19 00:27:29;;;;;;;1.80;1.70;;;9.20;99.90;;;8.05;100.00;97394.50;4971004;28;20957;-77
2022/09/19 00:29:55;;;;;;;2.00;1.80;;;9.10;99.90;;;8.04;100.00;97392.91;5017948;28;20450;-77
2022/09/19 00:32:23;;;;;;;2.63;1.80;;;9.10;99.90;;;7.97;100.00;97400.16;5051988;28;20401;-77
2022/09/19 00:34:52;;;;;;;2.00;1.70;;;9.00;99.90;;;7.89;100.00;97401.34;5051564;28;20451;-77
2022/09/19 00:37:20;;;;;;;2.38;1.75;;;9.00;99.90;;;7.93;100.00;97396.38;5050891;28;20409;-76
2022/09/19 00:39:46;;;;;;;2.35;1.80;;;9.00;99.90;;;7.91;100.00;97396.59;5033788;28;20444;-77
2022/09/19 00:42:15;;;;;;;2.30;1.80;;;9.00;99.90;;;7.78;100.00;97388.97;5051731;28;20409;-77
2022/09/19 00:44:57;;;;;;;2.97;1.95;;;8.80;99.90;;;7.73;100.00;97389.69;5033344;28;20437;-76
2022/09/19 00:47:33;;;;;;;2.67;1.70;;;8.80;99.90;;;7.63;100.00;97402.63;5051698;28;20397;-76
2022/09/19 00:50:06;;;;;;;1.90;1.60;;;8.80;99.90;;;7.52;100.00;97392.91;5051800;28;20478;-76
2022/09/19 00:52:42;;;;;;;2.15;1.55;;;8.70;99.90;;;7.54;100.00;97405.84;5050380;28;20966;-77
2022/09/19 00:55:08;;;;;;;2.40;1.70;;;8.60;99.90;;;7.44;100.00;97408.28;5051370;28;20393;-77
2022/09/19 00:57:46;;;;;;;1.80;1.70;;;8.60;99.90;;;7.49;100.00;97409.19;5051645;28;20401;-77
2022/09/19 01:00:14;;;;;;;2.40;1.60;;;8.60;99.90;;;7.54;100.00;97413.75;5051516;28;20408;-77
2022/09/19 01:02:41;;;;;;;1.70;1.60;;;8.60;99.90;;;7.42;100.00;97405.88;5051193;28;20406;-76
2022/09/19 01:05:07;;;;;;;2.47;1.55;;;8.60;99.90;;;7.39;100.00;97408.94;5051152;28;20425;-76
2022/09/19 01:07:48;;;;;;;4.22;2.00;;;8.60;99.90;;;7.50;100.00;97415.25;5033021;28;20845;-76
2022/09/19 01:10:34;;;;;;;2.35;2.10;;;8.60;99.90;;;7.48;100.00;97423.38;5039417;28;20544;-77
2022/09/19 01:13:11;;;;;;;2.38;1.85;;;8.60;99.90;;;7.49;100.00;97421.53;5011141;28;20891;-76
2022/09/19 01:15:51;;;;;;;3.50;2.05;;;8.60;99.90;;;7.38;100.00;97423.94;5011390;28;20455;-76
2022/09/19 01:18:21;;;;;;;2.25;1.92;;;8.50;99.90;;;7.35;100.00;97428.88;5011645;28;20403;-76
2022/09/19 01:24:49;;;;;;;2.47;2.17;;;8.40;99.90;;;7.27;100.00;97426.59;5010906;28;20985;-76
2022/09/19 01:28:10;;;;;;;3.92;2.30;;;8.30;99.90;;;7.27;100.00;97426.59;5011338;28;20393;-76
2022/09/19 01:30:46;;;;;;;2.85;2.50;;;8.30;99.90;;;7.21;100.00;97419.59;5011285;28;20404;-76
2022/09/19 01:33:18;;;;;;;6.80;3.08;;;8.30;99.90;;;7.25;100.00;97418.09;5009587;28;20495;-76
2022/09/19 01:35:50;;;;;;;3.55;2.90;;;8.40;99.90;;;7.21;100.00;97423.03;5011073;28;20914;-76
2022/09/19 01:38:22;;;;;;;3.97;3.20;;;8.40;99.90;;;7.20;100.00;97420.63;5011181;28;20408;-76
2022/09/19 01:40:50;;;;;;;4.30;2.92;;;8.30;99.90;;;7.16;100.00;97419.47;5011148;28;20763;-76
2022/09/19 01:43:19;;;;;;;3.08;2.60;;;8.20;99.90;;;7.21;100.00;97432.78;5009400;28;20491;-76
2022/09/19 01:45:47;;;;;;;4.60;3.10;;;8.30;99.90;;;7.19;100.00;97430.38;5010864;28;20826;-76
2022/09/19 01:48:18;;;;;;;7.15;3.55;;;8.30;99.90;;;7.16;100.00;97432.63;5010684;28;20475;-76
2022/09/19 01:51:10;;;;;;;3.85;3.40;;;8.20;99.90;;;7.19;100.00;97435.63;5010946;28;20437;-76
2022/09/19 01:53:55;;;;;;;5.90;3.70;;;8.30;99.90;;;7.15;100.00;97441.56;5010372;28;20445;-76
2022/09/19 01:56:36;;;;;;;4.75;3.55;;;8.30;99.90;;;7.21;100.00;97438.84;5011026;28;20805;-76
2022/09/19 01:59:23;;;;;;;6.10;3.78;;;8.30;99.90;;;7.23;100.00;97439.41;5010928;28;20446;-76
2022/09/19 02:02:00;;;;;;;5.53;3.63;;;8.30;99.90;;;7.22;100.00;97436.97;5010845;28;20463;-76
2022/09/19 02:04:34;;;;;;;6.43;3.85;;;8.30;99.90;;;7.15;100.00;97431.03;5010133;28;20442;-75
2022/09/19 02:07:09;;;;;;;7.28;4.03;;;8.30;99.90;;;7.15;100.00;97437.09;5010751;28;20401;-75
2022/09/19 02:09:47;;;;;;;5.55;3.65;;;8.20;99.90;;;7.12;100.00;97437.56;5010717;28;20401;-75
2022/09/19 02:12:16;;;;;;;7.78;3.60;;;8.20;99.90;;;7.14;100.00;97440.75;5010666;28;20440;-75
2022/09/19 02:14:54;;;;;;;11.35;3.55;;;8.20;99.90;;;7.07;100.00;97441.91;5034991;22;20436;-74
2022/09/19 02:17:26;;;;;;;7.78;3.38;;;8.10;99.90;;;7.03;100.00;97454.72;5069868;28;20489;-73
2022/09/19 02:19:56;;;;;;;4.20;3.23;;;8.10;99.90;;;7.07;100.00;97450.59;5068950;28;20761;-74
2022/09/19 02:22:27;;;;;;;8.18;3.45;;;8.20;99.90;;;7.08;100.00;97454.81;5070045;28;20384;-73
2022/09/19 02:24:58;;;;;;;6.72;3.60;;;8.20;99.90;;;6.98;100.00;97457.22;5069661;28;20412;-74
2022/09/19 02:27:29;;;;;;;10.17;3.23;;;8.10;99.90;;;7.03;100.00;97446.81;5070221;28;20434;-74
2022/09/19 02:30:02;;;;;;;8.25;4.00;;;8.20;99.90;;;6.98;100.00;97452.78;5070226;28;20945;-74
2022/09/19 02:32:28;;;;;;;5.38;3.30;;;8.10;99.90;;;7.04;100.00;97453.69;5068794;28;20399;-74
2022/09/19 02:34:55;;;;;;;4.47;3.33;;;8.10;99.90;;;7.07;100.00;97452.44;5069590;28;20418;-74
2022/09/19 02:37:29;;;;;;;8.32;3.90;;;8.10;99.90;;;6.99;100.00;97450.94;5070061;28;20532;-74
2022/09/19 02:40:02;;;;;;;7.75;4.00;;;8.10;99.90;;;7.01;100.00;97459.41;5070021;28;20410;-74
2022/09/19 02:42:43;;;;;;;6.15;4.00;;;8.00;99.90;;;6.97;100.00;97468.78;5069874;28;20403;-74
2022/09/19 02:45:17;;;;;;;6.68;3.72;;;8.10;99.90;;;7.01;100.00;97459.41;5069681;28;20460;-74
2022/09/19 02:47:51;;;;;;;6.85;3.80;;;8.10;99.90;;;7.03;100.00;97457.34;5070002;28;20400;-74
2022/09/19 02:50:24;;;;;;;9.73;3.88;;;8.10;99.90;;;6.93;100.00;97459.72;5077430;28;21003;-74
2022/09/19 02:52:53;;;;;;;8.53;4.23;;;8.00;99.90;;;6.95;100.00;97458.47;5061704;28;20452;-74
2022/09/19 02:55:25;;;;;;;7.10;3.90;;;8.10;99.90;;;7.04;100.00;97456.31;5078011;28;20396;-75
2022/09/19 02:57:57;;;;;;;10.50;4.25;;;8.10;99.90;;;7.03;100.00;97453.91;5066892;28;20442;-74
2022/09/19 03:00:25;;;;;;;8.27;3.50;;;8.10;99.90;;;6.95;100.00;97463.75;5083363;28;20437;-74
2022/09/19 03:02:56;;;;;;;6.63;3.47;;;8.00;99.90;;;6.91;100.00;97456.53;5093474;28;20445;-74
2022/09/19 03:05:26;;;;;;;9.48;3.83;;;8.00;99.90;;;6.82;100.00;97460.50;5093807;28;20609;-74
2022/09/19 03:07:59;;;;;;;13.73;3.90;;;7.90;99.90;;;6.85;100.00;97462.66;5093871;28;20413;-74
2022/09/19 03:10:31;;;;;;;9.10;3.83;;;7.90;99.90;;;6.87;100.00;97458.78;5093796;28;20494;-75
2022/09/19 03:13:02;;;;;;;15.52;4.10;;;7.90;99.90;;;6.84;100.00;97467.13;5093372;28;20912;-74
2022/09/19 03:15:36;;;;;;;11.07;3.92;;;7.90;99.90;;;6.84;100.00;97466.34;5093542;28;20815;-74
2022/09/19 03:18:05;;;;;;;8.55;3.60;;;7.90;99.90;;;6.83;100.00;97462.13;5093619;28;20897;-74
2022/09/19 03:20:36;;;;;;;10.30;4.10;;;7.90;99.90;;;6.83;100.00;97470.00;5093528;28;20887;-74
2022/09/19 03:23:03;;;;;;;11.57;4.00;;;7.90;99.90;;;6.78;100.00;97477.75;5093048;28;20500;-74
2022/09/19 03:25:28;;;;;;;8.93;3.92;;;7.90;99.90;;;6.79;100.00;97474.91;5109001;28;20783;-74
2022/09/19 03:27:55;;;;;;;13.63;3.90;;;7.90;99.90;;;6.87;100.00;97479.84;5093404;28;20398;-74
2022/09/19 03:30:21;;;;;;;11.07;3.90;;;7.90;99.90;;;6.80;100.00;97478.34;5093328;28;20425;-74
2022/09/19 03:32:49;;;;;;;14.65;3.85;;;7.90;99.90;;;6.81;100.00;97477.31;5092843;28;20455;-74
2022/09/19 03:35:15;;;;;;;10.75;3.83;;;7.90;99.90;;;6.77;100.00;97474.31;5093247;28;20394;-75
2022/09/19 03:37:41;;;;;;;13.82;3.90;;;7.90;99.90;;;6.74;100.00;97476.59;5093247;28;20826;-75
2022/09/19 03:40:10;;;;;;;11.37;3.90;;;7.80;99.90;;;6.79;100.00;97482.00;5083072;28;20419;-75
2022/09/19 03:42:37;;;;;;;17.23;3.83;;;7.80;99.90;;;6.61;100.00;97485.50;5081025;28;20434;-75
2022/09/19 03:45:04;;;;;;;13.52;4.35;;;7.70;99.90;;;6.71;100.00;97490.19;5078390;28;20788;-75
2022/09/19 03:47:30;;;;;;;12.68;4.10;;;7.80;99.90;;;6.59;100.00;97488.34;5066674;28;20433;-75
2022/09/19 03:49:58;;;;;;;19.38;4.53;;;7.70;99.90;;;6.73;100.00;97496.84;5061306;28;20503;-74
2022/09/19 03:52:26;;;;;;;14.93;3.95;;;7.80;99.90;;;6.68;100.00;97491.47;5061391;28;20421;-73
2022/09/19 03:54:53;;;;;;;15.10;4.53;;;7.70;99.90;;;6.87;100.00;97486.94;5060589;28;20536;-73
2022/09/19 03:57:20;;;;;;;16.35;3.95;;;7.90;99.90;;;6.97;100.00;97488.00;5060475;28;20410;-74
2022/09/19 03:59:46;;;;;;;12.63;3.83;;;8.00;99.90;;;6.87;100.00;97482.47;5065011;28;20395;-73
2022/09/19 04:02:12;;;;;;;21.23;4.20;;;7.90;99.90;;;6.91;100.00;97474.94;5060976;28;20408;-73
2022/09/19 04:04:38;;;;;;;14.57;4.03;;;8.00;99.90;;;6.92;100.00;97482.59;5061693;28;20400;-74
2022/09/19 04:07:06;;;;;;;13.93;3.58;;;8.00;99.90;;;6.96;100.00;97480.34;5060221;28;20421;-73
2022/09/19 04:09:33;;;;;;;16.90;3.85;;;8.00;99.90;;;7.02;100.00;97495.22;5060688;28;20399;-74
2022/09/19 04:12:02;;;;;;;12.10;3.70;;;8.10;99.90;;;7.08;100.00;97493.50;5061886;28;20548;-73
2022/09/19 04:14:29;;;;;;;14.13;3.83;;;8.10;99.90;;;7.14;100.00;97498.66;5060578;28;20401;-74
2022/09/19 04:16:56;;;;;;;14.15;3.45;;;8.10;99.90;;;7.13;100.00;97504.97;5060530;28;20401;-74
2022/09/19 04:19:25;;;;;;;12.38;4.30;;;8.10;99.90;;;7.19;100.00;97505.91;5058028;28;20897;-73
2022/09/19 04:21:52;;;;;;;13.80;4.18;;;8.20;99.90;;;7.15;100.00;97499.47;5061030;28;20492;-74
2022/09/19 04:24:20;;;;;;;13.03;3.60;;;8.20;99.90;;;7.17;100.00;97507.94;5065574;28;20412;-72
2022/09/19 04:26:47;;;;;;;16.83;4.07;;;8.20;99.90;;;7.20;100.00;97499.59;5071958;28;20825;-73
2022/09/19 04:29:12;;;;;;;14.25;3.97;;;8.20;99.90;;;7.20;100.00;97503.03;5072070;28;20407;-75
2022/09/19 04:31:39;;;;;;;12.10;3.37;;;8.20;99.90;;;7.08;100.00;97514.56;5072149;28;20475;-75
2022/09/19 04:34:05;;;;;;;11.73;3.50;;;8.10;99.90;;;7.22;100.00;97521.22;5065353;28;20465;-75
2022/09/19 04:36:34;;;;;;;15.95;3.65;;;8.20;99.90;;;7.25;100.00;97523.41;5060970;28;20401;-75
2022/09/19 04:39:02;;;;;;;16.80;3.35;;;8.30;99.90;;;7.20;100.00;97520.66;5062221;28;20500;-74
2022/09/19 04:41:33;;;;;;;12.60;3.50;;;8.30;99.90;;;7.20;100.00;97532.00;5064955;28;20500;-74
2022/09/19 04:44:00;;;;;;;9.57;3.60;;;8.30;99.90;;;7.20;100.00;97523.31;5068368;28;20957;-76
2022/09/19 04:46:26;;;;;;;12.45;3.30;;;8.20;99.90;;;7.20;100.00;97528.56;5058119;28;20441;-72
2022/09/19 04:48:54;;;;;;;16.23;3.95;;;8.20;99.90;;;7.25;100.00;97531.31;5060372;28;20414;-71
2022/09/19 04:51:20;;;;;;;13.82;3.83;;;8.30;99.90;;;7.29;100.00;97528.00;5059811;28;20404;-71
2022/09/19 04:53:46;;;;;;;14.60;4.00;;;8.40;99.90;;;7.28;100.00;97531.69;5064125;28;20419;-72
2022/09/19 04:56:12;;;;;;;11.93;3.38;;;8.30;99.90;;;7.26;100.00;97530.28;5059529;28;20416;-71
2022/09/19 04:58:40;;;;;;;15.60;3.80;;;8.30;99.90;;;7.30;100.00;97529.59;5064814;28;20411;-71
2022/09/19 05:01:08;;;;;;;15.40;3.88;;;8.30;99.90;;;7.36;100.00;97534.00;5066683;28;20403;-71
2022/09/19 05:03:35;;;;;;;16.58;3.60;;;8.40;99.90;;;7.32;100.00;97529.38;5062518;28;20400;-72
2022/09/19 05:06:01;;;;;;;16.23;3.80;;;8.40;99.90;;;7.32;100.00;97535.44;5064007;28;20504;-72
2022/09/19 05:08:30;;;;;;;16.50;3.88;;;8.40;99.90;;;7.35;100.00;97527.13;5051259;28;20405;-71
2022/09/19 05:10:58;;;;;;;11.05;3.35;;;8.40;99.90;;;7.39;100.00;97540.63;5059097;28;20407;-71
2022/09/19 05:13:25;;;;;;;15.38;3.72;;;8.40;99.90;;;7.39;100.00;97544.06;5070674;28;20821;-71
2022/09/19 05:15:53;;;;;;;20.70;3.78;;;8.40;99.90;;;7.53;100.00;97546.47;5070816;28;20411;-71
2022/09/19 05:18:21;;;;;;;12.50;3.57;;;8.50;99.90;;;7.48;100.00;97549.78;5070967;28;20496;-72
2022/09/19 05:20:48;;;;;;;16.58;3.42;;;8.50;99.90;;;7.56;100.00;97551.28;5069461;28;20399;-71
2022/09/19 05:23:14;;;;;;;20.55;3.47;;;8.50;99.90;;;7.62;100.00;97553.81;5056992;28;20779;-72
2022/09/19 05:25:40;;;;;;;18.15;3.83;;;8.60;99.90;;;7.57;100.00;97553.72;5068235;28;20416;-73
2022/09/19 05:28:08;;;;;;;13.18;3.08;;;8.60;99.90;;;7.47;100.00;97558.72;5069054;28;20519;-72
2022/09/19 05:30:37;;;;;;;16.55;3.47;;;8.50;99.90;;;7.61;100.00;97557.47;5069028;28;20396;-73
2022/09/19 05:33:06;;;;;;;13.00;2.90;;;8.60;99.90;;;7.66;100.00;97564.72;5068604;28;20904;-73
2022/09/19 05:35:32;;;;;;;16.38;3.13;;;8.60;99.90;;;7.58;100.00;97565.84;5066641;28;20819;-73
2022/09/19 05:37:59;;;;;;;16.83;3.65;;;8.60;99.90;;;7.62;100.00;97568.81;5077795;28;20396;-74
2022/09/19 05:40:25;;;;;;;16.45;3.90;;;8.60;99.90;;;7.56;100.00;97559.19;5088153;28;20432;-73
2022/09/19 05:43:03;;;;;;;17.98;3.22;;;8.60;99.90;;;7.45;100.00;97563.41;5085443;28;20407;-73
2022/09/19 05:45:29;;;;;;;14.18;4.03;;;8.50;99.90;;;7.52;100.00;97574.63;5070378;28;20416;-73
2022/09/19 05:48:00;;;;;;;13.88;3.25;;;8.60;99.90;;;7.61;100.00;97578.56;5070669;28;20439;-73
2022/09/19 05:50:28;;;;;;;16.17;3.75;;;8.60;99.90;;;7.56;100.00;97572.38;5070709;28;20743;-73
2022/09/19 05:55:38;;;;;;;13.43;3.42;;;8.60;99.90;;;7.72;100.00;97577.78;5069181;28;20893;-74
2022/09/19 05:58:06;;;;;;;10.95;3.53;;;8.70;99.90;;;7.75;100.00;97582.56;5070476;28;20400;-73
2022/09/19 06:00:32;;;;;;;21.27;3.70;;;8.70;99.90;;;7.69;100.00;97578.22;5057566;28;20419;-74
2022/09/19 06:03:01;;;;;;;13.70;3.33;;;8.70;99.90;;;7.65;100.00;97592.91;5064529;28;20415;-73
2022/09/19 06:05:32;;;;;;;15.65;3.88;;;8.70;99.90;;;7.66;100.00;97593.69;5060523;28;20850;-74
2022/09/19 06:07:59;;;;;;;17.17;3.35;;;8.60;99.90;;;7.72;100.00;97598.84;5058365;28;20853;-73
2022/09/19 06:10:26;;;;;;;15.80;3.50;;;8.70;99.90;;;7.74;100.00;97604.69;5065173;28;20407;-72
2022/09/19 06:12:53;;;;;;;16.95;3.67;;;8.80;99.90;;;7.84;100.00;97606.75;5065351;28;20424;-71
2022/09/19 06:15:19;;;;;;;18.92;4.13;;;8.80;99.90;;;7.86;100.00;97614.44;5061317;28;20610;-71
2022/09/19 06:17:49;;;;;;;16.08;3.13;;;8.90;99.90;;;7.78;100.00;97621.66;5061688;28;20418;-71
2022/09/19 06:20:16;;;;;;;18.17;3.77;;;8.80;99.90;;;7.88;100.00;97621.09;5065351;28;20411;-71
2022/09/19 06:22:44;;;;;;;18.45;3.50;;;8.90;99.90;;;7.90;100.00;97612.94;5059933;28;20989;-77
2022/09/19 06:25:10;;;;;;;15.98;3.05;;;8.90;99.90;;;8.00;100.00;97621.09;5056837;28;20465;-75
2022/09/19 06:27:36;;;;;;;11.93;3.03;;;9.00;99.90;;;7.92;100.00;97621.44;5068440;28;20816;-75
2022/09/19 06:30:06;;;;;;;13.70;3.33;;;8.90;99.90;;;8.11;100.00;97620.31;5068575;28;20443;-73
2022/09/19 06:32:32;;;;;;;11.95;2.80;;;9.10;99.90;;;8.06;100.00;97622.81;5067453;28;20429;-74
2022/09/19 06:34:58;;;;;;;16.33;2.95;;;9.10;99.90;;;8.01;100.00;97620.88;5058427;28;20400;-74
2022/09/19 06:37:23;;;;;;;23.43;3.53;;;9.00;99.90;;;8.08;100.00;97621.56;5069476;28;20424;-74
2022/09/19 06:39:51;;;;;;;17.55;3.10;;;9.10;99.90;;;8.23;100.00;97618.47;5057291;28;20436;-73
2022/09/19 06:42:17;;;;;;;10.00;2.55;;;9.20;99.90;;;8.24;100.00;97619.28;5068248;28;20416;-73
2022/09/19 06:44:42;;;;;;;12.47;2.90;;;9.20;99.90;;;8.28;100.00;97617.78;5063949;28;20439;-73
2022/09/19 06:47:08;;;;;;;15.65;3.22;;;9.20;99.90;;;8.25;100.00;97621.69;5072158;28;20423;-74
2022/09/19 06:49:35;;;;;;;22.30;3.15;;;9.20;99.90;;;8.17;100.00;97624.66;5072428;28;20483;-74
2022/09/19 06:52:02;;;;;;;17.52;3.25;;;9.10;99.90;;;8.25;100.00;97631.44;5065665;28;20464;-73
2022/09/19 06:54:28;;;;;;;18.77;3.13;;;9.20;99.90;;;8.32;100.00;97627.69;5060830;28;20403;-74
2022/09/19 06:56:55;;;;;;;19.30;3.37;;;9.30;99.90;;;8.41;100.00;97625.50;5054341;28;20401;-73
2022/09/19 06:59:21;;;;;;;18.55;3.00;;;9.30;99.90;;;8.37;100.00;97634.88;5059998;28;20407;-74
2022/09/19 07:01:47;;;;;;;18.75;2.75;;;9.30;99.90;;;8.34;100.00;97628.25;5065031;28;20407;-73
2022/09/19 07:04:13;;;;;;;19.67;3.65;;;9.30;99.90;;;8.26;100.00;97638.31;5066527;28;20403;-73
2022/09/19 07:06:39;;;;;;;13.45;2.78;;;9.20;99.90;;;8.39;100.00;97643.38;5069888;28;20506;-75
2022/09/19 07:09:07;;;;;;;14.85;2.95;;;9.30;99.90;;;8.41;100.00;97638.69;5063556;28;20504;-73
2022/09/19 07:11:35;;;;;;;20.35;3.03;;;9.40;99.90;;;8.40;100.00;97637.06;5059652;28;20490;-76
2022/09/19 07:14:04;;;;;;;17.85;3.00;;;9.40;99.90;;;8.50;100.00;97643.34;5062374;28;20863;-73
2022/09/19 07:16:30;;;;;;;14.73;2.83;;;9.50;99.90;;;8.44;100.00;97643.47;5062802;28;20408;-75
2022/09/19 07:18:56;;;;;;;21.13;3.47;;;9.40;99.90;;;8.62;100.00;97646.00;5068006;28;20411;-75
2022/09/19 07:21:22;;;;;;;12.07;3.50;;;9.50;99.90;;;8.68;100.00;97652.97;5070159;28;20431;-74
2022/09/19 07:23:50;;;;;;;18.45;3.25;;;9.70;99.90;;;8.83;100.00;97652.50;5071413;28;20411;-75
2022/09/19 07:26:16;;;;;;;15.02;3.83;;;9.70;99.90;;;8.80;100.00;97655.59;5068250;28;20411;-76
2022/09/19 07:28:42;;;;;;;23.13;3.22;;;9.70;99.90;;;8.78;100.00;97661.13;5065829;28;20423;-77
2022/09/19 07:31:09;;;;;;;12.60;2.72;;;9.70;99.90;;;8.82;100.00;97667.53;5057047;28;20403;-73
2022/09/19 07:33:35;;;;;;;17.90;3.20;;;9.80;99.90;;;8.86;100.00;97670.53;5065244;28;20471;-73
2022/09/19 07:36:01;;;;;;;12.60;2.65;;;9.80;99.90;;;8.88;100.00;97673.69;5061029;28;20452;-74
2022/09/19 07:38:28;;;;;;;16.27;2.80;;;9.80;99.90;;;8.91;100.00;97674.06;5059862;28;20405;-73
2022/09/19 07:40:54;;;;;;;18.48;3.13;;;9.90;99.90;;;8.86;100.00;97673.97;5064105;28;20499;-74
2022/09/19 07:43:20;;;;;;;14.35;3.00;;;9.80;99.90;;;9.02;100.00;97677.69;5075247;28;20405;-73
2022/09/19 07:45:49;;;;;;;19.77;2.63;;;10.00;99.90;;;9.11;100.00;97689.50;5081118;28;20418;-73
2022/09/19 07:48:18;;;;;;;16.25;2.83;;;10.00;99.90;;;9.09;100.00;97686.31;5080251;28;20509;-74
2022/09/19 07:50:46;;;;;;;18.20;2.97;;;10.00;99.90;;;9.17;100.00;97693.06;5065849;28;20881;-74
2022/09/19 07:53:15;;;;;;;16.80;3.15;;;10.10;99.90;;;9.05;100.00;97695.72;5054932;28;20420;-73
2022/09/19 07:55:42;;;;;;;20.45;2.90;;;10.00;99.90;;;9.00;100.00;97702.75;5059389;28;20490;-74
2022/09/19 07:58:11;;;;;;;15.33;2.80;;;9.90;99.90;;;9.10;100.00;97695.00;5060716;28;20920;-74
2022/09/19 08:00:38;;;;;;;14.73;2.90;;;10.00;99.90;;;9.08;100.00;97702.38;5052813;28;20455;-73
2022/09/19 08:03:08;;;;;;;16.17;3.03;;;10.00;99.90;;;9.26;100.00;97702.19;5065741;28;20755;-73
2022/09/19 08:05:37;;;;;;;16.25;3.05;;;10.10;99.90;;;9.24;100.00;97701.66;5058443;28;20407;-74
2022/09/19 08:08:04;;;;;;;17.13;3.67;;;10.10;99.90;;;9.32;100.00;97709.97;5059256;28;20418;-73
2022/09/19 08:10:31;;;;;;;15.90;2.90;;;10.20;99.90;;;9.16;100.00;97715.22;5066483;28;20449;-73
2022/09/19 08:12:59;;;;;;;17.27;2.85;;;10.10;99.90;;;9.28;100.00;97715.97;5069465;28;20822;-74
2022/09/19 08:15:25;;;;;;;21.23;2.95;;;10.20;99.90;;;9.48;100.00;97724.28;5067473;22;20452;-75
2022/09/19 08:17:57;;;;;;;19.23;3.15;;;10.30;99.90;;;9.38;100.00;97723.31;5031889;28;20411;-74
2022/09/19 08:20:23;;;;;;;17.58;3.17;;;10.30;99.90;;;9.52;100.00;97728.09;5030340;28;20403;-73
2022/09/19 08:22:56;;;;;;;17.58;2.83;;;10.40;99.90;;;9.55;100.00;97727.59;5031683;28;20438;-74
2022/09/19 08:25:22;;;;;;;17.27;3.05;;;10.50;99.90;;;9.60;100.00;97725.06;5031077;28;20418;-75
2022/09/19 08:27:50;;;;;;;20.08;2.88;;;10.60;99.90;;;9.77;100.00;97722.47;5031173;28;20783;-75
2022/09/19 08:30:16;;;;;;;16.13;3.25;;;10.70;99.90;;;9.94;100.00;97731.22;5030926;28;20419;-75
2022/09/19 08:32:45;;;;;;;14.82;3.20;;;10.80;99.90;;;9.88;100.00;97726.88;5026304;28;20423;-74
2022/09/19 08:35:11;;;;;;;18.33;2.80;;;10.70;99.90;;;9.94;100.00;97727.75;5028926;28;20905;-75
2022/09/19 08:37:37;;;;;;;15.48;3.50;;;10.80;99.90;;;10.01;100.00;97728.41;5028051;28;20417;-84
2022/09/19 08:40:18;;;;;;;18.00;3.00;;;10.90;99.90;;;10.10;100.00;97737.56;5027494;28;20499;-80
2022/09/19 08:42:57;;;;;;;14.27;2.53;;;11.00;99.90;;;10.21;100.00;97742.03;5030123;28;20513;-79
2022/09/19 08:45:33;;;;;;;9.20;2.47;;;11.10;99.90;;;10.30;100.00;97743.22;5030387;28;20418;-78
2022/09/19 08:48:05;;;;;;;16.92;3.50;;;11.20;99.90;;;10.31;100.00;97747.47;5030853;28;20478;-76
2022/09/19 08:50:37;;;;;;;18.48;3.85;;;11.20;99.90;;;10.45;100.00;97745.31;5025225;28;20499;-76
2022/09/19 08:53:06;;;;;;;12.00;2.67;;;11.30;99.90;;;10.50;100.00;97749.91;5034870;28;20434;-77
2022/09/19 08:55:35;;;;;;;13.53;2.60;;;11.40;99.90;;;10.54;100.00;97746.50;5039373;28;20402;-87
2022/09/19 08:58:04;;;;;;;10.98;2.65;;;11.40;99.90;;;10.56;100.00;97755.03;5041661;28;20416;-86
2022/09/19 09:00:37;;;;;;;13.33;2.90;;;11.40;99.90;;;10.65;100.00;97756.22;5033295;28;20411;-83
2022/09/19 09:03:06;;;;;;;14.77;3.22;;;11.50;99.90;;;10.53;100.00;97757.34;5024802;28;20425;-88
2022/09/19 09:05:44;;;;;;;16.55;2.60;;;11.40;99.90;;;10.47;100.00;97767.84;5030448;28;20426;-83
2022/09/19 09:08:21;;;;;;;13.48;3.38;;;11.40;99.90;;;10.52;100.00;97774.28;5026374;28;20414;-82
2022/09/19 09:10:55;;;;;;;14.35;3.17;;;11.40;99.90;;;10.65;100.00;97766.00;5031467;28;20884;-77
2022/09/19 09:13:39;;;;;;;15.73;3.28;;;11.50;99.90;;;10.64;100.00;97767.03;5028482;28;20415;-79
2022/09/19 09:16:17;;;;;;;13.63;2.50;;;11.50;99.90;;;10.72;100.00;97778.03;5029115;28;20880;-81
2022/09/19 09:19:02;;;;;;;8.27;2.45;;;11.60;99.90;;;10.85;100.00;97774.25;5029187;28;20418;-77
2022/09/19 09:21:41;;;;;;;10.48;2.70;;;11.70;99.90;;;10.82;100.00;97772.91;5027858;28;20428;-79
2022/09/19 09:24:15;;;;;;;13.50;2.67;;;11.70;99.90;;;10.75;100.00;97772.25;5024602;28;20585;-75
2022/09/19 09:26:44;;;;;;;12.10;2.47;;;11.70;99.90;;;10.79;100.00;97772.56;5024179;28;20777;-75
2022/09/19 09:29:17;;;;;;;14.40;3.33;;;11.60;99.90;;;10.89;100.00;97771.94;5026014;28;20411;-75
2022/09/19 09:31:47;;;;;;;12.02;2.65;;;11.60;99.90;;;10.83;100.00;97774.47;5021825;28;20409;-77
2022/09/19 09:34:19;;;;;;;14.82;2.53;;;11.70;99.90;;;10.73;100.00;97771.69;5021670;28;20415;-77
2022/09/19 09:36:55;;;;;;;11.38;2.70;;;11.70;99.90;;;10.71;100.00;97776.44;5024116;28;20811;-77
2022/09/19 09:39:27;;;;;;;13.38;2.40;;;11.60;99.90;;;10.59;100.00;97773.06;5030992;28;20403;-83
2022/09/19 09:41:58;;;;;;;17.33;3.03;;;11.50;99.90;;;10.56;100.00;97778.84;5034839;28;20410;-77
2022/09/19 09:44:44;;;;;;;18.20;2.85;;;11.40;99.90;;;10.51;98.75;97770.84;5042472;28;20414;-79
2022/09/19 09:47:26;;;;;;;11.88;2.75;;;11.40;99.90;;;10.49;98.41;97778.19;5029742;28;20426;-76
2022/09/19 09:50:15;;;;;;;10.03;2.90;;;11.40;99.90;;;10.59;100.00;97775.72;5030688;28;20403;-76
2022/09/19 09:52:52;;;;;;;12.45;3.10;;;11.50;99.90;;;10.68;100.00;97784.03;5025910;28;20413;-77
2022/09/19 09:58:35;;;;;;;9.32;2.80;;;11.60;99.90;;;10.78;100.00;97785.00;5028031;28;20816;-74
2022/09/19 10:04:26;;;;;;;9.63;2.78;;;11.70;99.90;;;10.84;100.00;97785.88;5029259;28;20433;-75
2022/09/19 10:07:10;;;;;;;8.88;2.63;;;11.70;99.90;;;10.92;100.00;97774.88;5029778;28;20419;-74
2022/09/19 10:09:41;;;;;;;13.02;2.75;;;11.80;99.90;;;10.98;100.00;97776.53;5029878;28;20430;-74
2022/09/19 10:12:21;;;;;;;12.90;3.17;;;11.80;99.90;;;11.22;100.00;97777.13;5029408;28;20403;-75
2022/09/19 10:14:52;;;;;;;6.50;2.53;;;12.00;99.90;;;11.20;100.00;97772.06;5029227;28;20497;-76
2022/09/19 10:17:19;;;;;;;9.23;2.53;;;12.10;99.90;;;11.29;100.00;97763.72;5029597;28;20980;-76
2022/09/19 10:19:48;;;;;;;10.45;2.92;;;12.10;99.90;;;11.40;99.36;97758.31;5029927;28;20422;-77
2022/09/19 10:22:16;;;;;;;10.98;2.30;;;12.20;99.90;;;11.56;96.14;97767.25;5029814;28;20415;-75
2022/09/19 10:24:47;;;;;;;11.50;2.50;;;12.40;99.90;;;11.59;96.77;97761.41;5029607;28;20504;-75
2022/09/19 10:27:16;;;;;;;11.15;2.42;;;12.40;99.90;;;11.61;98.14;97769.94;5029353;28;21002;-75
2022/09/19 10:29:56;;;;;;;8.85;2.60;;;12.50;99.90;;;11.55;96.36;97766.44;5024321;28;20427;-75
2022/09/19 10:32:24;;;;;;;8.70;2.35;;;12.40;99.90;;;11.86;96.23;97764.16;5027224;28;20411;-75
2022/09/19 10:34:51;;;;;;;7.78;2.35;;;12.60;99.90;;;11.86;95.82;97770.25;5028631;28;20413;-80
2022/09/19 10:37:21;;;;;;;6.40;1.80;;;12.60;99.90;;;11.85;94.13;97757.25;5030188;28;20407;-76
2022/09/19 10:39:48;;;;;;;5.77;1.80;;;12.60;99.90;;;11.87;96.88;97761.25;5029633;28;20444;-77
2022/09/19 10:42:36;;;;;;;9.47;2.10;;;12.70;99.90;;;11.96;98.58;97766.88;5027138;28;20792;-76
2022/09/19 10:45:17;;;;;;;5.38;2.05;;;12.80;99.90;;;12.07;94.90;97760.63;5026603;28;20399;-80
2022/09/19 10:47:44;;;;;;;5.22;1.70;;;12.90;99.90;;;11.98;96.57;97762.13;5027998;28;20800;-82